KENW/ENW METAR and TAF weather

Enter ICAO airport designator
Station Type Date Time Source
KENW METAR 2020/09/19 22:53 UTC NOAA

KENW 192253Z 13008KT 10SM CLR 16/06 A3031 RMK AO2 SLP269 T01560056


Station Type Date Time Source
KENW Decoded METAR 2020/09/19 22:53 UTC NOAA

KENOSHA REGIONAL AIRPORT, WI, United States (KENW) 42-36N 087-56W 219M
Sep 19, 2020 - 06:53 PM EDT / 2020.09.19 2253 UTC
Wind: from the SE (130 degrees) at 9 MPH (8 KT):0
Visibility: 10 mile(s):0
Sky conditions: clear
Temperature: 60.1 F (15.6 C)
Dew Point: 42.1 F (5.6 C)
Relative Humidity: 51%
Pressure (altimeter): 30.31 in. Hg (1026 hPa)
ob: KENW 192253Z 13008KT 10SM CLR 16/06 A3031 RMK AO2 SLP269 T01560056
cycle: 23

Station Type Date Time Source
KENW TAF 2020/09/19 20:30 UTC NOAA

TAF
AMD KENW 192029Z 1920/2018 17006KT P6SM SKC
FM200100 14005KT P6SM SKC
FM201000 19005KT P6SM SKC

Example: see airport list